Pagrindinis puslapis
METAR-TAF:

METAR-TAF

Oro uostai :

Santa Marija, Pietų Rio Grandė, Brazilija

platuma: 29-43S, ilguma: 053-42W, Aukštis: 85 m

Dabartinis oras

Ataskaita buvo paskelbta 58 minutes, ne 02:00 UTC
Vėjas 2 kt nuo kintamojo kryptimis
Temperatūra 20°C
Drėgmė 56%
Slėgis 1016 hPa
Matomumas 10 km arba daugiau
nėra debesų žemiau 1500 m ir nėra kamuolinių lietaus debesų

METAR: SBSM 210200Z VRB02KT CAVOK 20/11 Q1016

Laikas: 23:58 (02:58 UTC)

Prognozė

Ataskaita buvo paskelbta 4 valandos ir 58 minutes, ne 22:00 UTC
Prognozė galioja nuo 21 metu 00 UTC su 21 metu 12 UTC
Vėjas 5 kt iš Pietų/Pietvakarių
Matomumas 10 km arba daugiau
nėra debesų žemiau 1500 m ir nėra kamuolinių lietaus debesų
Tapsmas
nuo 21 metu 05 UTC su 21 metu 07 UTC
Vėjas 5 kt iš Vakarų/Šiaurės Vakarų
Matomumas 10 km arba daugiau
Mažai debesys ne aukštis 4000 ft
Tapsmas
nuo 21 metu 08 UTC su 21 metu 10 UTC
Matomumas: 8000 m
Mažai debesys ne aukštis 1500 ft

TAF: SBSM 202200Z 2100/2112 21005KT CAVOK TX26/2100Z TN17/2108Z BECMG 2105/2107 30005KT 9999 FEW040 BECMG 2108/2110 8000 FEW015 RMK PEA

Orai ataskaitas ir orų prognozės (METAR, TAF).

turimą stotys yra geltonos ir raudonos taškus žemėlapyje.

Perkelti pele per norėdami pamatyti stoties vardą.

Tada spustelėkite, norėdami matyti oro stebėjimo ir prognozės.

Norėdami pakeisti žemėlapį: spustelėkite ant žalios mygtukų su juodo kryžiaus žemyn,; žalią mygtuką su brūkšneliu, jei norite nutolinti; arba žalių rodyklių gretimoms žemėlapius.


METAR-TAF: